Parnassus, Pennsylvania
Current Conditions -  °F | °C
As of 5:51 AM on Thursday 27 Nov 2014 (Local Time) from KAGC Reporting Station
Haze Haze  
Wind Chill: -3°   Ceiling: 4100
Heat Index:   Visibility: 3mi
Dew Point: -2°   Wind: 5mph
Humidity: 87%   Direction: 250°WSW
Pressure: 29.99"   Gusts: NA
Location:  40.5657°N, 79.707°W
Report Text: KAGC 271051Z 25004KT 3SM BR FEW005 SCT029 OVC041 00/M02 A2999 RMK AO2
Loading
Personal Weather Stations






























Interactive Weather Map New forecast layout! Learn more

10-Day Weather Forecast

Advertisements
Track Severe Weather on mobile